Norton Canes, United Kingdom
Current Conditions -  °F | °C
As of 4:20 AM on Monday 26 Jan 2015 (Local Time) from EGBB Reporting Station
Light Rain Light Rain  
Wind Chill: 42°   Ceiling: 2400
Heat Index: 46°   Visibility: 6mi
Dew Point: 45°   Wind: 8mph
Humidity: 93%   Direction: 220°SW
Pressure: 30.12"   Gusts: NA
Location:  52.67°N, 1.96°W
Report Text: EGBB 260420Z 22007KT 190V260 9999 -RA SCT019 BKN024 08/07 Q1020
Loading
Personal Weather Stations






























Interactive Weather Map New forecast layout! Learn more

10-Day Weather Forecast

Advertisements
Track Severe Weather on mobile